Aviation Digital Data Service (ADDS)

Output produced by METARs form (1654 UTC 26 April 2018)
found at http://aviationweather.gov/adds/metars/
 
KLBX 261553Z AUTO 35012G17KT 10SM CLR 19/08 A3005 RMK AO2 SLP175 T01940078